Time;durP1;ratioP1;P1;durP2;ratioP2;P2;SDS_P1;SDS_P2;PMS_P1;PMS_P2;Temp;Humidity;BMP_temperature;BMP_pressure;BME280_temperature;BME280_humidity;BME280_pressure;Samples;Min_cycle;Max_cycle;Signal;HPM_P1;HPM_P2
2023/05/14 00:02:27;;;;;;;6.55;2.60;;;;;;;13.03;44.24;100526.28;5980615;24;20020;-76
2023/05/14 00:06:00;;;;;;;6.00;2.47;;;;;;;12.86;44.51;100508.09;5979265;23;20444;-76
2023/05/14 00:09:39;;;;;;;4.30;2.58;;;;;;;12.93;44.63;100525.47;5979897;24;20020;-75
2023/05/14 00:12:51;;;;;;;;;;;;;;;12.90;44.62;100520.28;5981578;24;20031;-74
2023/05/14 00:16:30;;;;;;;4.20;2.53;;;;;;;12.76;44.72;100516.03;5949828;24;20029;-75
2023/05/14 00:19:58;;;;;;;5.53;2.50;;;;;;;12.77;44.84;100524.72;5980504;24;20096;-76
2023/05/14 00:23:36;;;;;;;5.32;2.50;;;;;;;12.75;44.87;100529.06;5980368;24;20028;-75
2023/05/14 00:27:13;;;;;;;9.57;3.00;;;;;;;12.48;45.06;100492.69;5979401;24;20071;-74
2023/05/14 00:30:47;;;;;;;6.95;2.67;;;;;;;12.58;45.20;100529.19;5981053;24;20051;-77
2023/05/14 00:34:32;;;;;;;4.67;2.80;;;;;;;12.55;45.66;100534.44;5980413;24;20024;-74
2023/05/14 00:38:04;;;;;;;7.85;2.60;;;;;;;12.46;45.96;100525.75;5980459;24;20031;-76
2023/05/14 00:41:46;;;;;;;4.78;2.50;;;;;;;12.47;45.73;100543.16;5957943;24;20456;-74
2023/05/14 00:45:11;;;;;;;6.53;2.65;;;;;;;12.43;45.99;100540.56;5929717;24;20027;-76
2023/05/14 00:49:00;;;;;;;5.43;2.83;;;;;;;12.38;45.92;100534.50;6042554;23;20114;-76
2023/05/14 00:52:50;;;;;;;4.95;2.80;;;;;;;12.29;46.34;100536.25;6067725;23;20042;-74
2023/05/14 00:56:18;;;;;;;7.85;3.00;;;;;;;12.27;46.31;100545.00;6068144;23;20102;-75
2023/05/14 00:59:47;;;;;;;6.38;2.70;;;;;;;12.22;46.33;100538.91;6064689;23;20019;-74
2023/05/14 01:03:17;;;;;;;7.90;3.03;;;;;;;12.18;46.95;100538.06;6068543;23;20069;-75
2023/05/14 01:06:55;;;;;;;5.50;2.40;;;;;;;12.13;47.03;100547.66;6059703;23;20062;-74
2023/05/14 01:10:36;;;;;;;5.68;2.95;;;;;;;12.00;46.90;100533.78;6095021;23;20022;-75
2023/05/14 01:14:10;;;;;;;5.80;2.80;;;;;;;12.03;47.22;100546.81;6096606;23;20462;-75
2023/05/14 01:17:48;;;;;;;6.72;2.78;;;;;;;11.98;47.46;100549.41;6065909;23;20026;-75
2023/05/14 01:21:18;;;;;;;4.30;3.15;;;;;;;11.96;47.70;100547.66;6096151;23;20073;-75
2023/05/14 01:24:47;;;;;;;6.00;2.80;;;;;;;11.95;47.66;100556.34;6096913;23;20101;-75
2023/05/14 01:28:06;;;;;;;8.35;2.92;;;;;;;11.92;48.03;100553.78;6046654;23;20018;-75
2023/05/14 01:31:47;;;;;;;11.32;2.80;;;;;;;11.92;48.32;100556.38;6096751;23;20039;-76
2023/05/14 01:35:16;;;;;;;8.85;3.13;;;;;;;11.88;48.20;100556.38;6070075;23;20026;-75
2023/05/14 01:38:53;;;;;;;4.18;2.90;;;;;;;11.89;48.53;100562.44;6095146;23;20085;-76
2023/05/14 01:42:22;;;;;;;5.57;2.75;;;;;;;11.82;48.29;100556.38;6089189;23;20101;-75
2023/05/14 01:46:27;;;;;;;8.63;2.92;;;;;;;11.76;48.42;100543.34;6089082;23;20030;-76
2023/05/14 01:50:09;;;;;;;5.28;2.65;;;;;;;11.87;48.12;100566.81;6096323;23;20029;-75
2023/05/14 01:53:36;;;;;;;9.85;3.03;;;;;;;11.96;48.53;100571.13;6088583;23;20104;-73
2023/05/14 01:57:07;;;;;;;5.65;3.00;;;;;;;11.90;48.13;100559.84;6069445;23;20105;-75
2023/05/14 02:00:33;;;;;;;12.65;8.15;;;;;;;12.02;48.35;100577.25;6037204;23;20033;-75
2023/05/14 02:04:03;;;;;;;7.63;3.35;;;;;;;12.04;48.47;100580.69;6070314;23;20028;-75
2023/05/14 02:25:19;;;;;;;9.30;2.60;;;;;;;12.24;48.04;100571.09;5918647;24;20025;-77
2023/05/14 02:41:44;;;;;;;3.58;2.55;;;;;;;12.69;47.77;100607.47;5870734;24;20056;-76
2023/05/14 02:50:12;;;;;;;5.55;2.60;;;;;;;12.77;47.72;100616.13;5954933;24;20100;-77
2023/05/14 02:53:43;;;;;;;4.22;2.38;;;;;;;12.74;47.74;100606.56;5957628;24;20060;-78
2023/05/14 02:57:12;;;;;;;2.50;2.30;;;;;;;12.79;47.69;100603.91;5954293;24;20029;-79
2023/05/14 03:01:07;;;;;;;4.38;2.40;;;;;;;12.94;47.39;100609.03;6013864;23;20027;-78
2023/05/14 03:14:56;;;;;;;4.30;2.45;;;;;;;13.19;47.34;100623.72;5899283;24;20109;-77
2023/05/14 03:18:43;;;;;;;3.63;2.20;;;;;;;13.31;47.06;100617.53;5904016;24;20035;-77
2023/05/14 03:23:02;;;;;;;3.83;2.45;;;;;;;13.46;46.75;100624.44;5916122;24;20032;-78
2023/05/14 03:27:46;;;;;;;3.38;2.15;;;;;;;13.65;46.63;100633.88;5926802;24;20036;-79
2023/05/14 03:45:59;;;;;;;6.40;2.63;;;;;;;14.29;45.36;100633.25;5818677;24;20100;-78
2023/05/14 03:59:29;;;;;;;4.45;2.50;;;;;;;15.09;44.53;100634.03;5899016;24;20489;-78
2023/05/14 04:03:05;;;;;;;3.85;2.30;;;;;;;15.23;43.65;100631.22;5925438;24;20741;-78
2023/05/14 04:21:32;;;;;;;4.38;2.00;;;;;;;15.85;42.80;100637.22;6009843;23;20030;-77
2023/05/14 04:25:49;;;;;;;5.78;2.10;;;;;;;15.96;42.68;100644.06;5982355;24;20097;-78
2023/05/14 04:38:31;;;;;;;11.23;2.40;;;;;;;16.69;41.80;100639.13;5848596;24;20045;-78
2023/05/14 04:59:23;;;;;;;4.75;2.00;;;;;;;17.91;39.68;100643.38;5748808;24;20068;-77
2023/05/14 05:07:47;;;;;;;3.75;2.10;;;;;;;19.08;38.34;100641.88;5843958;24;20063;-78
2023/05/14 05:16:21;;;;;;;2.78;1.88;;;;;;;19.66;37.26;100637.41;5790060;24;20027;-78
2023/05/14 05:20:04;;;;;;;4.25;2.08;;;;;;;19.88;36.86;100637.56;5897144;24;20082;-79
2023/05/14 05:35:49;;;;;;;2.65;1.75;;;;;;;22.17;34.87;100629.63;5905209;24;20524;-78
2023/05/14 05:39:48;;;;;;;3.47;1.70;;;;;;;25.65;30.45;100603.03;6003865;23;20027;-79
2023/05/14 05:44:21;;;;;;;3.55;1.65;;;;;;;29.05;26.93;100596.69;5951906;24;20545;-77
2023/05/14 06:06:03;;;;;;;1.92;1.48;;;;;;;37.22;17.27;100597.09;5952375;24;20031;-76
2023/05/14 06:09:33;;;;;;;3.08;1.27;;;;;;;38.28;15.53;100594.38;5952345;24;20025;-77
2023/05/14 06:13:11;;;;;;;2.58;1.38;;;;;;;38.54;14.65;100589.69;5934986;24;20141;-77
2023/05/14 06:16:51;;;;;;;1.50;1.40;;;;;;;38.86;13.72;100601.41;5929523;24;20024;-76
2023/05/14 06:20:52;;;;;;;1.42;1.10;;;;;;;39.92;13.04;100604.22;5917459;24;20024;-76
2023/05/14 06:24:27;;;;;;;2.08;1.38;;;;;;;40.71;12.15;100591.00;5982184;24;20024;-76
2023/05/14 06:28:37;;;;;;;2.15;1.23;;;;;;;41.75;11.22;100575.09;5872459;24;20034;-78
2023/05/14 06:40:22;;;;;;;4.43;1.45;;;;;;;40.90;11.22;100594.13;5841731;24;20485;-76
2023/05/14 06:44:29;;;;;;;4.28;1.35;;;;;;;42.07;10.96;100593.78;5900399;24;20033;-76
2023/05/14 06:47:57;;;;;;;2.60;1.45;;;;;;;41.88;10.59;100573.50;5876804;24;20029;-77
2023/05/14 06:51:28;;;;;;;1.50;1.40;;;;;;;42.40;9.68;100587.63;5924146;24;20069;-78
2023/05/14 06:58:58;;;;;;;1.52;1.20;;;;;;;41.40;10.50;100586.81;5926611;24;20189;-75
2023/05/14 07:07:04;;;;;;;2.17;1.20;;;;;;;43.46;9.63;100602.53;5915154;24;20029;-76
2023/05/14 07:15:11;;;;;;;4.85;1.60;;;;;;;44.21;8.59;100601.31;5916436;24;20465;-77
2023/05/14 07:18:54;;;;;;;2.53;1.38;;;;;;;41.28;9.84;100606.63;5989418;23;20123;-75
2023/05/14 07:23:01;;;;;;;3.78;1.30;;;;;;;38.93;10.55;100596.94;5977057;23;20047;-77
2023/05/14 07:31:10;;;;;;;2.83;1.48;;;;;;;37.30;11.33;100611.69;6037520;23;20139;-77
2023/05/14 07:34:59;;;;;;;5.57;1.35;;;;;;;36.12;11.95;100597.97;6007556;23;20165;-76
2023/05/14 07:39:19;;;;;;;1.63;1.27;;;;;;;34.37;12.55;100619.00;5952574;24;20021;-77
2023/05/14 07:42:57;;;;;;;2.45;1.30;;;;;;;32.57;13.04;100624.75;5978582;23;20395;-76
2023/05/14 07:46:31;;;;;;;2.05;1.23;;;;;;;31.04;14.32;100618.91;6067335;23;20022;-75
2023/05/14 07:50:38;;;;;;;1.90;1.20;;;;;;;29.82;15.53;100618.69;6097836;23;20506;-75
2023/05/14 07:54:20;;;;;;;2.63;1.00;;;;;;;28.79;16.64;100609.34;6091603;23;20033;-78
2023/05/14 07:57:46;;;;;;;1.52;1.20;;;;;;;30.48;15.69;100623.41;6094259;23;20029;-75
2023/05/14 08:01:27;;;;;;;2.50;1.15;;;;;;;29.93;15.99;100621.38;6046618;23;20101;-75
2023/05/14 08:05:25;;;;;;;3.63;1.88;;;;;;;31.22;16.34;100611.19;6097083;23;20394;-76
2023/05/14 08:09:43;;;;;;;2.53;1.27;;;;;;;36.39;13.60;100598.78;6090504;23;20030;-77
2023/05/14 08:13:42;;;;;;;4.30;1.20;;;;;;;38.84;11.48;100607.00;6096064;23;20161;-77
2023/05/14 08:17:24;;;;;;;4.90;1.40;;;;;;;39.14;11.25;100606.31;6070891;23;20335;-76
2023/05/14 08:21:13;;;;;;;3.05;1.02;;;;;;;39.96;10.91;100610.13;6060169;23;20018;-78
2023/05/14 08:24:53;;;;;;;3.90;1.08;;;;;;;38.95;11.08;100613.06;6071638;23;20482;-76
2023/05/14 08:28:17;;;;;;;;;;;;;;;40.49;10.60;100603.72;6071309;23;20054;-76
2023/05/14 08:32:23;;;;;;;1.92;1.20;;;;;;;42.63;9.30;100600.94;6096314;23;20265;-75
2023/05/14 08:36:07;;;;;;;2.83;1.30;;;;;;;42.61;8.87;100603.03;6070007;23;20447;-76
2023/05/14 08:44:41;;;;;;;1.95;1.40;;;;;;;36.27;11.62;100602.78;6079970;23;20026;-76
2023/05/14 08:48:39;;;;;;;4.78;1.40;;;;;;;34.06;12.77;100613.03;6097252;23;20525;-76
2023/05/14 08:52:33;;;;;;;3.90;1.38;;;;;;;32.00;14.20;100617.13;6074344;23;20450;-76
2023/05/14 08:56:38;;;;;;;8.10;1.50;;;;;;;30.51;15.32;100620.47;6093072;23;20485;-76
2023/05/14 09:01:34;;;;;;;6.47;1.23;;;;;;;28.80;16.18;100622.59;5923784;24;20025;-75
2023/05/14 09:05:52;;;;;;;2.55;1.38;;;;;;;27.90;17.35;100623.53;5924734;24;20135;-75
2023/05/14 09:09:48;;;;;;;3.97;1.60;;;;;;;27.24;17.77;100619.94;5904489;24;20048;-75
2023/05/14 09:13:42;;;;;;;2.80;1.20;;;;;;;26.89;18.35;100623.97;5899381;24;20025;-77
2023/05/14 09:29:47;;;;;;;3.72;1.27;;;;;;;27.65;18.28;100603.84;6021999;23;20459;-75
2023/05/14 10:08:49;;;;;;;5.03;1.35;;;;;;;30.29;15.91;100595.34;6000038;23;20075;-78
2023/05/14 10:12:31;;;;;;;4.65;1.48;;;;;;;30.12;16.06;100572.53;5967392;23;20028;-79
2023/05/14 10:49:49;;;;;;;1.92;1.17;;;;;;;26.84;19.17;100591.34;5658172;25;20040;-77
2023/05/14 10:53:25;;;;;;;3.28;1.20;;;;;;;25.71;19.96;100588.47;5661225;25;20069;-76
2023/05/14 10:56:54;;;;;;;5.07;1.45;;;;;;;25.04;20.42;100592.31;5782010;24;20473;-78
2023/05/14 11:00:59;;;;;;;4.95;1.30;;;;;;;24.74;20.99;100586.94;5785465;24;20542;-77
2023/05/14 11:04:41;;;;;;;1.23;1.00;;;;;;;24.55;21.58;100598.56;5758700;24;20091;-80
2023/05/14 11:08:41;;;;;;;4.88;1.00;;;;;;;24.62;21.58;100591.97;5861200;24;20092;-78
2023/05/14 11:13:22;;;;;;;3.83;0.95;;;;;;;24.72;21.47;100595.00;5787855;24;20054;-76
2023/05/14 11:17:04;;;;;;;1.08;0.98;;;;;;;25.17;20.79;100586.28;5803419;24;20090;-76
2023/05/14 11:20:36;;;;;;;4.25;0.90;;;;;;;25.26;20.98;100583.97;5916845;24;20025;-75
2023/05/14 11:24:06;;;;;;;6.13;1.25;;;;;;;25.02;20.88;100580.91;5920839;24;20054;-78
2023/05/14 11:28:00;;;;;;;4.47;1.38;;;;;;;24.45;21.47;100584.06;5893529;24;20030;-77
2023/05/14 11:31:51;;;;;;;6.38;1.38;;;;;;;24.02;22.19;100597.88;5894846;24;20124;-77
2023/05/14 11:35:25;;;;;;;3.97;2.10;;;;;;;23.73;22.57;100595.75;5894543;24;20348;-75
2023/05/14 11:39:10;;;;;;;5.50;1.25;;;;;;;23.63;22.73;100583.88;5892958;24;20025;-78
2023/05/14 11:43:00;;;;;;;4.97;2.45;;;;;;;23.46;23.07;100590.03;5893319;24;20030;-76
2023/05/14 11:47:22;;;;;;;3.38;1.70;;;;;;;23.42;23.23;100577.84;6004503;23;20102;-77
2023/05/14 11:51:23;;;;;;;6.00;2.40;;;;;;;23.82;22.66;100575.84;6003068;23;20084;-76
2023/05/14 11:55:19;;;;;;;4.53;1.40;;;;;;;24.06;22.78;100578.13;6004124;23;20075;-77
2023/05/14 11:59:17;;;;;;;3.50;1.05;;;;;;;23.80;22.94;100577.72;6006514;23;20039;-79
2023/05/14 12:12:23;;;;;;;4.63;1.30;;;;;;;22.91;23.41;100466.25;5899445;24;20065;-77
2023/05/14 12:16:26;;;;;;;1.60;1.13;;;;;;;23.50;24.13;100581.00;5892209;24;20088;-79
2023/05/14 12:20:32;;;;;;;3.17;1.30;;;;;;;23.37;24.08;100586.06;5910216;24;20456;-79
2023/05/14 12:24:25;;;;;;;4.72;1.65;;;;;;;23.46;24.08;100585.59;5976346;24;20035;-78
2023/05/14 12:28:35;;;;;;;5.68;1.92;;;;;;;23.08;24.62;100590.13;5954208;24;20381;-79
2023/05/14 12:37:17;;;;;;;11.57;2.13;;;;;;;23.05;24.58;100591.16;5866798;24;20533;-79
2023/05/14 12:41:58;;;;;;;4.20;3.10;;;;;;;23.00;24.43;100586.03;5813841;24;20038;-78
2023/05/14 12:45:48;;;;;;;4.68;1.50;;;;;;;22.63;24.86;100563.06;5751627;24;20541;-77
2023/05/14 12:54:01;;;;;;;5.97;1.35;;;;;;;21.72;25.63;100491.22;5760923;24;20028;-79
2023/05/14 13:02:26;;;;;;;6.43;1.65;;;;;;;22.51;25.94;100591.88;5834026;24;20037;-80
2023/05/14 13:14:41;;;;;;;3.83;1.40;;;;;;;21.47;26.71;100598.16;5975703;24;20028;-78
2023/05/14 13:18:17;;;;;;;;;;;;;;;21.41;26.74;100598.41;5976445;24;20068;-76
2023/05/14 13:21:43;;;;;;;2.85;1.42;;;;;;;20.92;26.33;100589.75;5952238;24;19922;-80
2023/05/14 13:24:21;;;;;;;3.50;2.05;;;;;;;20.70;27.34;100583.56;5966217;24;20023;-78
2023/05/14 13:26:48;;;;;;;5.78;2.78;;;;;;;20.68;27.60;100604.75;5977413;23;20024;-76
2023/05/14 13:29:28;;;;;;;6.60;3.25;;;;;;;20.68;28.18;100599.44;5998537;23;20055;-78
2023/05/14 13:33:00;;;;;;;6.45;2.25;;;;;;;20.58;28.53;100600.75;6026077;23;20027;-78
2023/05/14 13:36:22;;;;;;;4.25;1.50;;;;;;;20.44;28.29;100574.81;5986722;23;20459;-77
2023/05/14 13:39:16;;;;;;;3.05;1.50;;;;;;;20.35;28.44;100580.44;6064011;23;20022;-77
2023/05/14 13:41:43;;;;;;;8.18;1.80;;;;;;;20.50;28.65;100600.16;6014957;23;20033;-79
2023/05/14 13:44:17;;;;;;;2.50;1.52;;;;;;;20.52;28.89;100603.59;6018067;23;20019;-77
2023/05/14 13:47:20;;;;;;;2.70;1.60;;;;;;;20.53;28.82;100592.97;6065925;23;20018;-76
2023/05/14 13:49:48;;;;;;;3.30;1.52;;;;;;;20.68;28.18;100594.16;6038366;23;20106;-78
2023/05/14 13:52:22;;;;;;;2.35;1.52;;;;;;;20.89;28.17;100603.09;6035884;23;20045;-77
2023/05/14 13:56:29;;;;;;;2.17;1.75;;;;;;;20.94;28.25;100602.91;6062342;23;20059;-77
2023/05/14 13:59:26;;;;;;;2.58;1.45;;;;;;;20.76;28.08;100602.72;6056684;23;20408;-78
2023/05/14 14:02:38;;;;;;;6.82;1.77;;;;;;;20.77;28.81;100603.56;6035851;23;20023;-78
2023/05/14 14:05:19;;;;;;;4.82;1.50;;;;;;;20.76;28.64;100607.13;6052873;23;20035;-76
2023/05/14 14:07:46;;;;;;;1.85;1.65;;;;;;;20.69;28.00;100595.91;6035669;23;20038;-76
2023/05/14 14:10:13;;;;;;;3.92;1.60;;;;;;;20.49;28.79;100598.44;6058300;23;20023;-78
2023/05/14 14:12:59;;;;;;;3.30;1.63;;;;;;;20.57;28.57;100588.44;6034919;23;20030;-77
2023/05/14 14:15:47;;;;;;;2.88;1.60;;;;;;;20.79;28.77;100590.28;6056413;23;20031;-79
2023/05/14 14:19:09;;;;;;;5.50;1.60;;;;;;;20.91;27.86;100593.31;6058527;23;20030;-77
2023/05/14 14:21:41;;;;;;;3.50;1.58;;;;;;;20.94;28.16;100599.41;6088505;23;20029;-77
2023/05/14 14:24:09;;;;;;;4.32;1.52;;;;;;;20.92;28.10;100597.69;6070523;23;20030;-76
2023/05/14 14:27:09;;;;;;;2.17;1.33;;;;;;;20.92;28.40;100596.81;6091003;23;20042;-78
2023/05/14 14:29:48;;;;;;;3.95;1.90;;;;;;;20.79;27.83;100591.13;6092329;23;20110;-77
2023/05/14 14:33:23;;;;;;;2.35;1.50;;;;;;;20.44;28.60;100594.19;6089227;23;20051;-79
2023/05/14 14:37:05;;;;;;;13.30;2.10;;;;;;;20.29;28.85;100592.13;6092254;23;20485;-77
2023/05/14 14:39:55;;;;;;;5.25;1.95;;;;;;;20.06;28.84;100604.38;6091862;23;20019;-79
2023/05/14 14:42:42;;;;;;;5.18;2.05;;;;;;;19.70;29.33;100591.53;6091515;23;20026;-77
2023/05/14 14:45:35;;;;;;;2.72;2.10;;;;;;;19.57;30.10;100613.03;6058356;23;20078;-74
2023/05/14 14:48:41;;;;;;;4.10;2.00;;;;;;;19.39;30.25;100611.91;6093601;23;20014;-75
2023/05/14 14:51:41;;;;;;;3.45;1.55;;;;;;;19.24;30.63;100605.34;6066690;23;20017;-77
2023/05/14 14:54:29;;;;;;;6.32;2.30;;;;;;;19.16;30.79;100609.13;6066867;23;20022;-77
2023/05/14 14:57:38;;;;;;;3.80;2.60;;;;;;;19.04;30.84;100611.22;6042605;23;20947;-75
2023/05/14 15:00:08;;;;;;;6.60;2.13;;;;;;;19.02;31.01;100606.94;6095605;23;20462;-76
2023/05/14 15:02:40;;;;;;;8.30;2.30;;;;;;;18.93;31.15;100603.63;6092990;23;20027;-75
2023/05/14 15:05:17;;;;;;;2.42;1.70;;;;;;;18.83;31.18;100615.38;6065015;23;20117;-77
2023/05/14 15:07:43;;;;;;;2.13;1.40;;;;;;;18.62;31.25;100617.75;6092830;23;20363;-76
2023/05/14 15:10:15;;;;;;;4.28;2.25;;;;;;;18.56;31.35;100611.78;6095020;23;20081;-74
2023/05/14 15:17:32;;;;;;;2.30;2.10;;;;;;;18.18;31.74;100615.47;6099902;23;20033;-76
2023/05/14 15:20:02;;;;;;;3.85;2.08;;;;;;;18.04;31.74;100612.34;6036644;23;20414;-75
2023/05/14 15:22:35;;;;;;;3.85;2.30;;;;;;;18.01;31.89;100617.69;6064477;23;20018;-75
2023/05/14 15:25:22;;;;;;;4.80;2.05;;;;;;;17.82;32.16;100606.75;6060554;23;20037;-75
2023/05/14 15:28:21;;;;;;;3.53;2.30;;;;;;;17.81;32.50;100615.53;6065338;23;20019;-76
2023/05/14 15:31:04;;;;;;;2.20;1.98;;;;;;;17.69;32.66;100607.06;6011632;23;20026;-76
2023/05/14 15:33:36;;;;;;;6.45;2.00;;;;;;;17.64;32.85;100608.09;6061690;23;20030;-75
2023/05/14 15:36:34;;;;;;;3.70;2.00;;;;;;;17.45;33.23;100612.06;6038888;23;20463;-75
2023/05/14 15:39:47;;;;;;;10.02;5.10;;;;;;;17.28;33.23;100601.94;6062022;23;20021;-75
2023/05/14 15:42:50;;;;;;;9.25;4.10;;;;;;;17.17;33.66;100593.44;6037454;23;20843;-74
2023/05/14 15:45:57;;;;;;;2.53;2.22;;;;;;;17.13;33.58;100605.78;6026652;23;20030;-76
2023/05/14 15:49:15;;;;;;;4.20;2.20;;;;;;;17.11;33.98;100604.94;6038391;23;20049;-76
2023/05/14 15:52:08;;;;;;;5.13;1.80;;;;;;;17.06;33.87;100593.69;6053653;23;20113;-79
2023/05/14 16:00:14;;;;;;;6.65;1.80;;;;;;;16.84;34.44;100614.31;6004370;23;20053;-78
2023/05/14 16:04:00;;;;;;;4.22;2.03;;;;;;;16.68;34.69;100606.75;5973527;23;20027;-76
2023/05/14 16:12:22;;;;;;;3.55;2.08;;;;;;;16.56;34.77;100621.03;5976812;24;20160;-77
2023/05/14 16:15:47;;;;;;;5.10;2.20;;;;;;;16.47;34.90;100615.09;5948775;24;20035;-77
2023/05/14 16:20:24;;;;;;;2.55;1.90;;;;;;;16.41;35.20;100623.97;5994209;23;20054;-76
2023/05/14 16:24:40;;;;;;;4.25;2.50;;;;;;;16.16;35.17;100627.06;5981176;23;20491;-78
2023/05/14 16:33:18;;;;;;;4.50;3.42;;;;;;;15.77;35.68;100626.88;6033317;23;20079;-77
2023/05/14 16:53:45;;;;;;;5.72;4.15;;;;;;;14.89;37.46;100635.16;5787022;24;20569;-78
2023/05/14 16:58:06;;;;;;;4.65;3.72;;;;;;;14.77;37.66;100653.69;5835139;24;20036;-78
2023/05/14 17:15:02;;;;;;;9.65;4.82;;;;;;;14.25;39.15;100670.81;6004313;23;20024;-78
2023/05/14 17:19:42;;;;;;;9.73;4.80;;;;;;;14.08;39.42;100669.22;5886520;24;20056;-76
2023/05/14 17:23:42;;;;;;;9.07;4.43;;;;;;;13.97;39.46;100673.72;5896477;24;20033;-76
2023/05/14 17:32:52;;;;;;;11.75;4.47;;;;;;;13.59;40.19;100685.31;5947646;24;20066;-75
2023/05/14 17:37:03;;;;;;;10.02;4.32;;;;;;;13.43;40.87;100687.19;6023334;23;20062;-74
2023/05/14 17:40:29;;;;;;;9.45;4.20;;;;;;;13.29;40.99;100675.03;6060760;23;20530;-75
2023/05/14 17:56:42;;;;;;;10.80;6.60;;;;;;;12.94;41.99;100695.25;5925405;24;20032;-78
2023/05/14 17:59:38;;;;;;;8.05;5.50;;;;;;;12.90;41.97;100697.88;5879084;24;20035;-76
2023/05/14 18:08:30;;;;;;;9.93;6.53;;;;;;;12.72;42.07;100704.94;5925254;24;20442;-76
2023/05/14 18:12:42;;;;;;;7.07;5.57;;;;;;;12.61;42.40;100704.97;5911698;24;20100;-77
2023/05/14 18:21:12;;;;;;;14.80;9.77;;;;;;;12.43;42.56;100720.66;5980359;24;20071;-77
2023/05/14 18:37:59;;;;;;;22.88;14.05;;;;;;;12.01;43.34;100712.88;5952652;24;20036;-77
2023/05/14 18:40:25;;;;;;;;;;;;;;;11.97;43.66;100711.09;6031469;23;20057;-77
2023/05/14 18:43:25;;;;;;;29.02;18.40;;;;;;;11.82;43.54;100707.63;6024850;23;19924;-76
2023/05/14 18:46:27;;;;;;;40.58;26.00;;;;;;;11.78;43.97;100705.88;6043391;23;20030;-77
2023/05/14 19:12:08;;;;;;;30.58;16.05;;;;;;;11.28;46.66;100726.63;5981008;24;20035;-75
2023/05/14 19:16:25;;;;;;;31.75;17.95;;;;;;;11.20;47.07;100719.66;5980663;24;20028;-78
2023/05/14 19:19:38;;;;;;;27.13;14.82;;;;;;;11.16;47.45;100731.81;5901821;24;20171;-78
2023/05/14 19:36:07;;;;;;;24.00;14.70;;;;;;;10.82;48.49;100727.34;5926041;24;20082;-76
2023/05/14 19:38:36;;;;;;;32.95;16.05;;;;;;;10.77;48.69;100730.78;5925777;24;20128;-78
2023/05/14 19:41:51;;;;;;;31.67;16.77;;;;;;;10.71;49.19;100734.22;5929330;24;20419;-78
2023/05/14 19:44:24;;;;;;;23.45;13.00;;;;;;;10.74;49.58;100744.66;5954050;24;20469;-75
2023/05/14 19:46:58;;;;;;;18.70;11.98;;;;;;;10.69;49.66;100736.81;5953843;24;20489;-79
2023/05/14 19:49:34;;;;;;;18.08;10.55;;;;;;;10.64;49.79;100735.06;5965047;23;20019;-76
2023/05/14 19:52:18;;;;;;;24.67;12.27;;;;;;;10.67;50.23;100741.13;6014286;23;20023;-77
2023/05/14 19:54:45;;;;;;;21.10;11.20;;;;;;;10.57;50.83;100730.66;6068987;23;20070;-77
2023/05/14 19:57:47;;;;;;;13.02;9.07;;;;;;;10.63;50.46;100743.72;6065209;23;20031;-76
2023/05/14 20:01:20;;;;;;;20.58;10.05;;;;;;;10.60;50.73;100734.16;6068876;23;20027;-76
2023/05/14 20:03:53;;;;;;;19.38;9.55;;;;;;;10.59;51.01;100744.56;6044953;23;20455;-77
2023/05/14 20:06:26;;;;;;;32.17;10.43;;;;;;;10.49;51.61;100736.69;6068465;23;20018;-78
2023/05/14 20:08:57;;;;;;;18.40;7.10;;;;;;;10.39;51.61;100730.56;6068643;23;20062;-79
2023/05/14 20:11:26;;;;;;;20.25;6.57;;;;;;;10.23;51.61;100705.28;6065641;23;20019;-78
2023/05/14 20:15:29;;;;;;;13.50;6.20;;;;;;;10.35;52.12;100728.78;6057086;23;20058;-78
2023/05/14 20:18:55;;;;;;;38.83;13.85;;;;;;;10.35;51.92;100736.59;6065151;23;20368;-78
2023/05/14 20:21:38;;;;;;;53.53;15.50;;;;;;;10.21;51.83;100731.28;6042882;23;20479;-77
2023/05/14 20:24:08;;;;;;;32.00;10.30;;;;;;;10.09;51.70;100713.84;6064759;23;20049;-78
2023/05/14 20:27:18;;;;;;;33.90;10.38;;;;;;;10.16;52.04;100735.56;5998572;23;20027;-78
2023/05/14 20:30:17;;;;;;;26.02;9.07;;;;;;;10.06;51.84;100732.03;5996984;23;20465;-79
2023/05/14 20:32:51;;;;;;;24.58;8.50;;;;;;;10.03;52.32;100737.19;6037147;23;20551;-77
2023/05/14 20:35:51;;;;;;;34.00;7.95;;;;;;;9.97;52.21;100741.47;6034295;23;20050;-76
2023/05/14 20:38:24;;;;;;;30.52;9.68;;;;;;;9.81;52.63;100728.34;6037075;23;20027;-77
2023/05/14 20:41:01;;;;;;;32.03;8.88;;;;;;;9.81;52.55;100736.16;6013437;23;20102;-77
2023/05/14 20:43:44;;;;;;;30.20;10.13;;;;;;;9.79;53.03;100743.91;6037278;23;20019;-77
2023/05/14 20:46:12;;;;;;;27.35;10.20;;;;;;;9.72;53.34;100733.47;6037583;23;20027;-76
2023/05/14 20:48:38;;;;;;;33.55;9.95;;;;;;;9.57;53.54;100714.28;6037386;23;20019;-77
2023/05/14 20:51:10;;;;;;;25.52;8.52;;;;;;;9.77;53.39;100743.03;6008497;23;20539;-77
2023/05/14 20:53:41;;;;;;;31.15;8.30;;;;;;;9.73;53.55;100746.47;6010534;23;20094;-76
2023/05/14 20:56:26;;;;;;;29.90;9.00;;;;;;;9.63;53.44;100747.25;6009529;23;20087;-76
2023/05/14 20:59:25;;;;;;;29.40;7.30;;;;;;;9.53;53.92;100747.97;6025598;23;20063;-75
2023/05/14 21:02:05;;;;;;;33.33;8.13;;;;;;;9.52;54.03;100754.91;6038264;23;20087;-76
2023/05/14 21:05:00;;;;;;;26.70;6.93;;;;;;;9.48;54.09;100753.13;6064406;23;20019;-76
2023/05/14 21:12:01;;;;;;;20.50;6.45;;;;;;;9.36;54.34;100747.81;6031730;23;20033;-76
2023/05/14 21:14:50;;;;;;;17.63;5.45;;;;;;;9.25;54.55;100743.34;6038429;23;20071;-76
2023/05/14 21:17:37;;;;;;;10.93;5.10;;;;;;;9.28;54.84;100751.19;6040552;23;20747;-75
2023/05/14 21:20:20;;;;;;;18.60;6.45;;;;;;;9.19;54.86;100744.16;6020812;23;20158;-77
2023/05/14 21:24:02;;;;;;;14.82;6.07;;;;;;;9.18;54.96;100751.91;5983098;23;20098;-77
2023/05/14 21:31:34;;;;;;;16.33;5.47;;;;;;;9.09;55.48;100744.03;6024968;23;20034;-78
2023/05/14 21:37:56;;;;;;;16.85;5.57;;;;;;;8.93;55.48;100738.66;6144183;22;20062;-75
2023/05/14 21:40:33;;;;;;;13.30;5.95;;;;;;;8.96;55.41;100745.59;6064423;23;20026;-77
2023/05/14 21:43:08;;;;;;;14.70;5.68;;;;;;;8.96;56.03;100743.88;6093605;23;20526;-76
2023/05/14 21:46:07;;;;;;;14.57;5.75;;;;;;;8.92;56.07;100744.72;6091917;23;20022;-76
2023/05/14 21:48:57;;;;;;;14.45;6.03;;;;;;;8.87;56.29;100748.97;6049161;23;20097;-77
2023/05/14 21:53:23;;;;;;;19.00;5.85;;;;;;;8.85;56.44;100748.06;6087290;23;20032;-78
2023/05/14 22:01:32;;;;;;;16.08;5.55;;;;;;;8.76;56.56;100747.91;6095231;23;20369;-78
2023/05/14 22:04:12;;;;;;;20.33;4.95;;;;;;;8.70;56.75;100740.94;6085719;23;20026;-76
2023/05/14 22:06:58;;;;;;;8.90;5.05;;;;;;;8.71;56.93;100751.34;6043062;23;20112;-76
2023/05/14 22:09:53;;;;;;;9.35;4.95;;;;;;;8.69;57.29;100744.38;6037264;23;20091;-76
2023/05/14 22:12:31;;;;;;;13.75;6.20;;;;;;;8.62;57.38;100743.44;6070039;23;20018;-76
2023/05/14 22:15:15;;;;;;;13.82;5.35;;;;;;;8.60;56.94;100742.53;6092847;23;20022;-77
2023/05/14 22:17:56;;;;;;;11.65;5.15;;;;;;;8.61;57.43;100744.28;6069605;23;20029;-77
2023/05/14 22:20:46;;;;;;;17.55;5.28;;;;;;;8.54;57.67;100732.94;6063276;23;20029;-75
2023/05/14 22:23:16;;;;;;;13.32;6.00;;;;;;;8.58;57.95;100744.22;6094589;23;20022;-76
2023/05/14 22:25:42;;;;;;;17.75;6.38;;;;;;;8.56;57.64;100748.50;6094005;23;20026;-76
2023/05/14 22:28:12;;;;;;;13.50;5.30;;;;;;;8.53;57.79;100749.34;6093875;23;20406;-76
2023/05/14 22:30:41;;;;;;;17.17;5.22;;;;;;;8.49;57.87;100750.16;6094120;23;20019;-75
2023/05/14 22:33:08;;;;;;;9.40;5.20;;;;;;;8.40;57.81;100735.31;6090349;23;20354;-75
2023/05/14 22:35:44;;;;;;;13.85;6.55;;;;;;;8.49;58.04;100754.47;6067445;23;20125;-76
2023/05/14 22:38:13;;;;;;;12.13;5.90;;;;;;;8.46;58.13;100749.22;6093910;23;20090;-76
2023/05/14 22:40:57;;;;;;;16.30;5.10;;;;;;;8.42;58.32;100743.97;6094272;23;20023;-77
2023/05/14 22:44:13;;;;;;;8.63;5.25;;;;;;;8.40;58.28;100753.44;6067227;23;20022;-76
2023/05/14 22:46:58;;;;;;;16.55;5.45;;;;;;;8.38;58.60;100746.50;6068529;23;20144;-76
2023/05/14 22:49:48;;;;;;;14.55;5.10;;;;;;;8.35;58.30;100752.50;6092353;23;20029;-76
2023/05/14 22:52:17;;;;;;;10.73;5.13;;;;;;;8.31;58.51;100744.66;6066515;23;20471;-76
2023/05/14 22:54:45;;;;;;;24.33;12.75;;;;;;;8.30;58.82;100748.97;6068046;23;20019;-77